sensor_id;sensor_type;location;lat;lon;timestamp;temperature;humidity
72320;SHT30;60269;52.502;16.732;2023-04-24T00:02:09;11.47;99.36
72320;SHT30;60269;52.502;16.732;2023-04-24T00:05:42;11.41;99.37
72320;SHT30;60269;52.502;16.732;2023-04-24T00:09:15;11.47;99.32
72320;SHT30;60269;52.502;16.732;2023-04-24T00:12:47;11.32;99.41
72320;SHT30;60269;52.502;16.732;2023-04-24T00:16:21;11.33;99.58
72320;SHT30;60269;52.502;16.732;2023-04-24T00:19:54;11.40;99.63
72320;SHT30;60269;52.502;16.732;2023-04-24T00:23:32;11.50;99.49
72320;SHT30;60269;52.502;16.732;2023-04-24T00:27:05;11.40;99.30
72320;SHT30;60269;52.502;16.732;2023-04-24T00:30:37;11.33;99.49
72320;SHT30;60269;52.502;16.732;2023-04-24T00:34:09;11.40;99.66
72320;SHT30;60269;52.502;16.732;2023-04-24T00:37:43;11.51;99.73
72320;SHT30;60269;52.502;16.732;2023-04-24T00:41:15;11.64;99.53
72320;SHT30;60269;52.502;16.732;2023-04-24T00:44:47;11.68;99.42
72320;SHT30;60269;52.502;16.732;2023-04-24T00:48:20;11.70;99.18
72320;SHT30;60269;52.502;16.732;2023-04-24T00:51:52;11.73;99.15
72320;SHT30;60269;52.502;16.732;2023-04-24T00:55:25;11.74;99.15
72320;SHT30;60269;52.502;16.732;2023-04-24T00:58:58;11.70;98.95
72320;SHT30;60269;52.502;16.732;2023-04-24T01:02:30;11.73;98.78
72320;SHT30;60269;52.502;16.732;2023-04-24T01:06:06;11.73;98.93
72320;SHT30;60269;52.502;16.732;2023-04-24T01:09:40;11.73;98.53
72320;SHT30;60269;52.502;16.732;2023-04-24T01:13:14;11.71;98.19
72320;SHT30;60269;52.502;16.732;2023-04-24T01:16:46;11.74;97.98
72320;SHT30;60269;52.502;16.732;2023-04-24T01:20:18;11.75;98.36
72320;SHT30;60269;52.502;16.732;2023-04-24T01:23:51;11.99;98.07
72320;SHT30;60269;52.502;16.732;2023-04-24T01:27:23;12.14;97.36
72320;SHT30;60269;52.502;16.732;2023-04-24T01:30:55;12.01;97.50
72320;SHT30;60269;52.502;16.732;2023-04-24T01:34:28;11.78;98.26
72320;SHT30;60269;52.502;16.732;2023-04-24T01:38:00;11.66;98.54
72320;SHT30;60269;52.502;16.732;2023-04-24T01:41:32;11.67;98.30
72320;SHT30;60269;52.502;16.732;2023-04-24T01:45:05;11.68;98.40
72320;SHT30;60269;52.502;16.732;2023-04-24T01:48:37;11.66;98.50
72320;SHT30;60269;52.502;16.732;2023-04-24T01:52:09;11.61;98.42
72320;SHT30;60269;52.502;16.732;2023-04-24T01:55:41;11.60;98.43
72320;SHT30;60269;52.502;16.732;2023-04-24T01:59:15;11.56;98.70
72320;SHT30;60269;52.502;16.732;2023-04-24T02:02:48;11.54;98.74
72320;SHT30;60269;52.502;16.732;2023-04-24T02:06:20;11.57;98.71
72320;SHT30;60269;52.502;16.732;2023-04-24T02:09:53;11.54;98.73
72320;SHT30;60269;52.502;16.732;2023-04-24T02:13:25;11.50;98.89
72320;SHT30;60269;52.502;16.732;2023-04-24T02:16:57;11.50;98.95
72320;SHT30;60269;52.502;16.732;2023-04-24T02:20:29;11.49;98.60
72320;SHT30;60269;52.502;16.732;2023-04-24T02:24:01;11.56;98.03
72320;SHT30;60269;52.502;16.732;2023-04-24T02:27:33;11.60;97.66
72320;SHT30;60269;52.502;16.732;2023-04-24T02:31:06;11.60;97.76
72320;SHT30;60269;52.502;16.732;2023-04-24T02:34:38;11.60;97.63
72320;SHT30;60269;52.502;16.732;2023-04-24T02:38:11;11.64;97.60
72320;SHT30;60269;52.502;16.732;2023-04-24T02:41:43;11.61;97.43
72320;SHT30;60269;52.502;16.732;2023-04-24T02:45:15;11.61;97.22
72320;SHT30;60269;52.502;16.732;2023-04-24T02:48:47;11.59;97.13
72320;SHT30;60269;52.502;16.732;2023-04-24T02:52:19;11.63;97.36
72320;SHT30;60269;52.502;16.732;2023-04-24T02:55:51;11.54;97.51
72320;SHT30;60269;52.502;16.732;2023-04-24T02:59:23;11.57;97.60
72320;SHT30;60269;52.502;16.732;2023-04-24T03:02:55;11.56;97.38
72320;SHT30;60269;52.502;16.732;2023-04-24T03:06:28;11.54;97.21
72320;SHT30;60269;52.502;16.732;2023-04-24T03:10:00;11.49;97.21
72320;SHT30;60269;52.502;16.732;2023-04-24T03:13:32;11.37;97.46
72320;SHT30;60269;52.502;16.732;2023-04-24T03:17:03;11.27;97.79
72320;SHT30;60269;52.502;16.732;2023-04-24T03:20:36;11.33;97.90
72320;SHT30;60269;52.502;16.732;2023-04-24T03:24:09;11.43;97.64
72320;SHT30;60269;52.502;16.732;2023-04-24T03:27:41;11.44;97.18
72320;SHT30;60269;52.502;16.732;2023-04-24T03:31:13;11.20;97.26
72320;SHT30;60269;52.502;16.732;2023-04-24T03:34:45;10.95;97.58
72320;SHT30;60269;52.502;16.732;2023-04-24T03:38:17;10.82;98.26
72320;SHT30;60269;52.502;16.732;2023-04-24T03:41:49;10.50;98.57
72320;SHT30;60269;52.502;16.732;2023-04-24T03:45:21;10.30;98.76
72320;SHT30;60269;52.502;16.732;2023-04-24T03:48:53;10.34;99.12
72320;SHT30;60269;52.502;16.732;2023-04-24T03:52:25;10.29;99.11
72320;SHT30;60269;52.502;16.732;2023-04-24T03:55:57;10.29;99.31
72320;SHT30;60269;52.502;16.732;2023-04-24T03:59:29;10.30;99.20
72320;SHT30;60269;52.502;16.732;2023-04-24T04:03:01;10.23;99.47
72320;SHT30;60269;52.502;16.732;2023-04-24T04:06:33;10.17;99.53
72320;SHT30;60269;52.502;16.732;2023-04-24T04:10:06;10.33;99.34
72320;SHT30;60269;52.502;16.732;2023-04-24T04:13:39;10.57;99.18
72320;SHT30;60269;52.502;16.732;2023-04-24T04:17:11;10.75;99.05
72320;SHT30;60269;52.502;16.732;2023-04-24T04:20:44;10.82;98.89
72320;SHT30;60269;52.502;16.732;2023-04-24T04:24:16;10.82;98.91
72320;SHT30;60269;52.502;16.732;2023-04-24T04:27:48;10.81;98.88
72320;SHT30;60269;52.502;16.732;2023-04-24T04:31:20;10.74;98.93
72320;SHT30;60269;52.502;16.732;2023-04-24T04:34:52;10.71;98.72
72320;SHT30;60269;52.502;16.732;2023-04-24T04:38:25;10.67;98.67
72320;SHT30;60269;52.502;16.732;2023-04-24T04:42:01;10.72;98.63
72320;SHT30;60269;52.502;16.732;2023-04-24T04:45:33;10.75;98.52
72320;SHT30;60269;52.502;16.732;2023-04-24T04:49:06;10.79;98.83
72320;SHT30;60269;52.502;16.732;2023-04-24T04:52:40;10.76;98.88
72320;SHT30;60269;52.502;16.732;2023-04-24T04:56:11;10.85;98.55
72320;SHT30;60269;52.502;16.732;2023-04-24T04:59:44;10.95;98.75
72320;SHT30;60269;52.502;16.732;2023-04-24T05:03:16;11.22;98.42
72320;SHT30;60269;52.502;16.732;2023-04-24T05:06:52;11.47;97.59
72320;SHT30;60269;52.502;16.732;2023-04-24T05:10:24;11.64;97.17
72320;SHT30;60269;52.502;16.732;2023-04-24T05:13:56;11.84;96.55
72320;SHT30;60269;52.502;16.732;2023-04-24T05:17:28;12.01;95.20
72320;SHT30;60269;52.502;16.732;2023-04-24T05:21:01;12.25;94.35
72320;SHT30;60269;52.502;16.732;2023-04-24T05:24:34;12.55;92.46
72320;SHT30;60269;52.502;16.732;2023-04-24T05:28:06;12.63;92.51
72320;SHT30;60269;52.502;16.732;2023-04-24T05:31:38;12.66;91.72
72320;SHT30;60269;52.502;16.732;2023-04-24T05:35:10;12.91;91.02
72320;SHT30;60269;52.502;16.732;2023-04-24T05:38:42;13.38;88.79
72320;SHT30;60269;52.502;16.732;2023-04-24T05:42:14;13.48;89.79
72320;SHT30;60269;52.502;16.732;2023-04-24T05:45:46;13.58;87.27
72320;SHT30;60269;52.502;16.732;2023-04-24T05:49:18;13.67;86.16
72320;SHT30;60269;52.502;16.732;2023-04-24T05:52:50;13.44;87.26
72320;SHT30;60269;52.502;16.732;2023-04-24T05:56:22;13.96;85.67
72320;SHT30;60269;52.502;16.732;2023-04-24T05:59:55;13.77;86.75
72320;SHT30;60269;52.502;16.732;2023-04-24T06:03:27;13.90;85.10
72320;SHT30;60269;52.502;16.732;2023-04-24T06:07:00;13.77;85.66
72320;SHT30;60269;52.502;16.732;2023-04-24T06:10:31;13.66;86.44
72320;SHT30;60269;52.502;16.732;2023-04-24T06:14:03;13.46;87.28
72320;SHT30;60269;52.502;16.732;2023-04-24T06:17:36;13.41;87.08
72320;SHT30;60269;52.502;16.732;2023-04-24T06:21:08;13.44;87.04
72320;SHT30;60269;52.502;16.732;2023-04-24T06:24:40;13.48;86.63
72320;SHT30;60269;52.502;16.732;2023-04-24T06:28:12;13.39;87.66
72320;SHT30;60269;52.502;16.732;2023-04-24T06:31:44;13.29;88.42
72320;SHT30;60269;52.502;16.732;2023-04-24T06:35:16;13.18;88.37
72320;SHT30;60269;52.502;16.732;2023-04-24T06:38:48;13.11;88.77
72320;SHT30;60269;52.502;16.732;2023-04-24T06:42:20;13.11;88.73
72320;SHT30;60269;52.502;16.732;2023-04-24T06:45:53;13.28;88.47
72320;SHT30;60269;52.502;16.732;2023-04-24T06:49:26;13.66;86.37
72320;SHT30;60269;52.502;16.732;2023-04-24T06:53:00;14.40;83.66
72320;SHT30;60269;52.502;16.732;2023-04-24T06:56:32;14.62;83.25
72320;SHT30;60269;52.502;16.732;2023-04-24T07:00:06;14.72;82.00
72320;SHT30;60269;52.502;16.732;2023-04-24T07:03:39;14.88;81.52
72320;SHT30;60269;52.502;16.732;2023-04-24T07:07:12;14.92;81.61
72320;SHT30;60269;52.502;16.732;2023-04-24T07:10:45;14.96;82.26
72320;SHT30;60269;52.502;16.732;2023-04-24T07:14:20;15.23;80.96
72320;SHT30;60269;52.502;16.732;2023-04-24T07:17:52;15.11;81.65
72320;SHT30;60269;52.502;16.732;2023-04-24T07:21:24;14.93;81.81
72320;SHT30;60269;52.502;16.732;2023-04-24T07:24:57;14.93;81.64
72320;SHT30;60269;52.502;16.732;2023-04-24T07:28:29;14.96;82.04
72320;SHT30;60269;52.502;16.732;2023-04-24T07:32:04;14.92;80.75
72320;SHT30;60269;52.502;16.732;2023-04-24T07:35:36;14.93;81.91
72320;SHT30;60269;52.502;16.732;2023-04-24T07:39:08;15.17;80.33
72320;SHT30;60269;52.502;16.732;2023-04-24T07:42:41;15.27;80.01
72320;SHT30;60269;52.502;16.732;2023-04-24T07:46:13;15.41;79.25
72320;SHT30;60269;52.502;16.732;2023-04-24T07:49:45;15.50;79.40
72320;SHT30;60269;52.502;16.732;2023-04-24T07:53:17;15.33;79.88
72320;SHT30;60269;52.502;16.732;2023-04-24T07:56:49;15.31;80.42
72320;SHT30;60269;52.502;16.732;2023-04-24T08:00:21;15.58;79.66
72320;SHT30;60269;52.502;16.732;2023-04-24T08:03:53;15.78;80.30
72320;SHT30;60269;52.502;16.732;2023-04-24T08:07:26;15.85;78.46
72320;SHT30;60269;52.502;16.732;2023-04-24T08:10:58;15.99;76.45
72320;SHT30;60269;52.502;16.732;2023-04-24T08:14:30;15.78;77.14
72320;SHT30;60269;52.502;16.732;2023-04-24T08:18:02;15.74;78.19
72320;SHT30;60269;52.502;16.732;2023-04-24T08:21:34;15.33;78.42
72320;SHT30;60269;52.502;16.732;2023-04-24T08:25:07;15.43;78.75
72320;SHT30;60269;52.502;16.732;2023-04-24T08:28:42;15.50;79.48
72320;SHT30;60269;52.502;16.732;2023-04-24T08:32:14;15.72;80.30
72320;SHT30;60269;52.502;16.732;2023-04-24T08:35:46;15.92;78.89
72320;SHT30;60269;52.502;16.732;2023-04-24T08:39:18;16.04;77.24
72320;SHT30;60269;52.502;16.732;2023-04-24T08:42:53;15.74;77.50
72320;SHT30;60269;52.502;16.732;2023-04-24T08:46:27;16.05;77.38
72320;SHT30;60269;52.502;16.732;2023-04-24T08:49:59;16.53;75.74
72320;SHT30;60269;52.502;16.732;2023-04-24T08:53:32;16.54;77.30
72320;SHT30;60269;52.502;16.732;2023-04-24T08:57:06;16.39;75.83
72320;SHT30;60269;52.502;16.732;2023-04-24T09:00:39;16.30;77.55
72320;SHT30;60269;52.502;16.732;2023-04-24T09:04:16;16.80;75.73
72320;SHT30;60269;52.502;16.732;2023-04-24T09:07:55;17.49;73.24
72320;SHT30;60269;52.502;16.732;2023-04-24T09:11:30;17.86;70.03
72320;SHT30;60269;52.502;16.732;2023-04-24T09:15:02;18.11;70.81
72320;SHT30;60269;52.502;16.732;2023-04-24T09:18:35;18.17;72.25
72320;SHT30;60269;52.502;16.732;2023-04-24T09:22:07;18.66;70.38
72320;SHT30;60269;52.502;16.732;2023-04-24T09:25:40;18.95;67.51
72320;SHT30;60269;52.502;16.732;2023-04-24T09:29:17;18.31;69.49
72320;SHT30;60269;52.502;16.732;2023-04-24T09:32:49;17.86;71.85
72320;SHT30;60269;52.502;16.732;2023-04-24T09:36:39;18.10;70.09
72320;SHT30;60269;52.502;16.732;2023-04-24T09:40:20;18.70;68.32
72320;SHT30;60269;52.502;16.732;2023-04-24T09:43:54;18.28;70.06
72320;SHT30;60269;52.502;16.732;2023-04-24T09:47:27;18.14;69.57
72320;SHT30;60269;52.502;16.732;2023-04-24T09:51:03;18.34;69.78
72320;SHT30;60269;52.502;16.732;2023-04-24T09:54:35;18.28;69.99
72320;SHT30;60269;52.502;16.732;2023-04-24T09:58:10;18.10;70.17
72320;SHT30;60269;52.502;16.732;2023-04-24T10:01:42;18.21;72.21
72320;SHT30;60269;52.502;16.732;2023-04-24T10:05:16;18.25;68.97
72320;SHT30;60269;52.502;16.732;2023-04-24T10:08:49;17.86;70.54
72320;SHT30;60269;52.502;16.732;2023-04-24T10:12:22;18.04;71.17
72320;SHT30;60269;52.502;16.732;2023-04-24T10:15:56;17.65;70.95
72320;SHT30;60269;52.502;16.732;2023-04-24T10:19:29;17.83;72.43
72320;SHT30;60269;52.502;16.732;2023-04-24T10:23:01;17.39;73.16
72320;SHT30;60269;52.502;16.732;2023-04-24T10:26:34;17.47;74.18
72320;SHT30;60269;52.502;16.732;2023-04-24T10:30:07;17.49;72.94
72320;SHT30;60269;52.502;16.732;2023-04-24T10:33:43;17.43;74.16
72320;SHT30;60269;52.502;16.732;2023-04-24T10:37:15;17.73;73.10
72320;SHT30;60269;52.502;16.732;2023-04-24T10:40:47;17.33;73.25
72320;SHT30;60269;52.502;16.732;2023-04-24T10:44:22;17.36;71.64
72320;SHT30;60269;52.502;16.732;2023-04-24T10:47:57;17.36;71.47
72320;SHT30;60269;52.502;16.732;2023-04-24T10:51:48;17.81;70.95
72320;SHT30;60269;52.502;16.732;2023-04-24T10:55:40;18.29;67.23
72320;SHT30;60269;52.502;16.732;2023-04-24T10:59:24;18.31;65.94
72320;SHT30;60269;52.502;16.732;2023-04-24T11:02:56;18.89;64.54
72320;SHT30;60269;52.502;16.732;2023-04-24T11:06:34;19.18;62.57
72320;SHT30;60269;52.502;16.732;2023-04-24T11:10:07;19.58;58.34
72320;SHT30;60269;52.502;16.732;2023-04-24T11:17:33;19.06;61.47
72320;SHT30;60269;52.502;16.732;2023-04-24T11:21:13;19.00;60.12
72320;SHT30;60269;52.502;16.732;2023-04-24T11:28:17;20.02;55.54
72320;SHT30;60269;52.502;16.732;2023-04-24T11:31:50;19.04;58.04
72320;SHT30;60269;52.502;16.732;2023-04-24T11:35:23;19.31;58.50
72320;SHT30;60269;52.502;16.732;2023-04-24T11:39:00;19.39;55.53
72320;SHT30;60269;52.502;16.732;2023-04-24T11:42:40;19.07;58.31
72320;SHT30;60269;52.502;16.732;2023-04-24T11:46:16;19.93;58.86
72320;SHT30;60269;52.502;16.732;2023-04-24T11:49:50;20.65;55.39
72320;SHT30;60269;52.502;16.732;2023-04-24T11:53:22;20.89;54.60
72320;SHT30;60269;52.502;16.732;2023-04-24T11:56:54;21.13;55.04
72320;SHT30;60269;52.502;16.732;2023-04-24T12:00:30;21.36;54.17
72320;SHT30;60269;52.502;16.732;2023-04-24T12:04:02;20.98;52.77
72320;SHT30;60269;52.502;16.732;2023-04-24T12:07:41;20.87;52.75
72320;SHT30;60269;52.502;16.732;2023-04-24T12:11:16;20.08;55.82
72320;SHT30;60269;52.502;16.732;2023-04-24T12:14:53;19.97;57.04
72320;SHT30;60269;52.502;16.732;2023-04-24T12:18:25;20.09;54.92
72320;SHT30;60269;52.502;16.732;2023-04-24T12:22:03;20.10;56.08
72320;SHT30;60269;52.502;16.732;2023-04-24T12:25:35;19.24;58.21
72320;SHT30;60269;52.502;16.732;2023-04-24T12:29:08;19.28;57.55
72320;SHT30;60269;52.502;16.732;2023-04-24T12:32:46;19.24;59.00
72320;SHT30;60269;52.502;16.732;2023-04-24T12:36:21;18.89;59.16
72320;SHT30;60269;52.502;16.732;2023-04-24T12:40:12;18.11;60.25
72320;SHT30;60269;52.502;16.732;2023-04-24T12:43:52;18.05;60.21
72320;SHT30;60269;52.502;16.732;2023-04-24T12:47:24;18.11;60.44
72320;SHT30;60269;52.502;16.732;2023-04-24T12:50:59;18.10;60.20
72320;SHT30;60269;52.502;16.732;2023-04-24T12:54:34;17.87;61.25
72320;SHT30;60269;52.502;16.732;2023-04-24T12:58:06;17.80;61.12
72320;SHT30;60269;52.502;16.732;2023-04-24T13:01:39;17.93;60.33
72320;SHT30;60269;52.502;16.732;2023-04-24T13:05:11;17.97;61.09
72320;SHT30;60269;52.502;16.732;2023-04-24T13:08:45;17.73;62.01
72320;SHT30;60269;52.502;16.732;2023-04-24T13:12:19;17.63;61.64
72320;SHT30;60269;52.502;16.732;2023-04-24T13:15:51;17.57;63.34
72320;SHT30;60269;52.502;16.732;2023-04-24T13:19:27;17.59;62.70
72320;SHT30;60269;52.502;16.732;2023-04-24T13:22:59;17.43;63.09
72320;SHT30;60269;52.502;16.732;2023-04-24T13:26:31;17.36;63.84
72320;SHT30;60269;52.502;16.732;2023-04-24T13:30:04;17.32;60.64
72320;SHT30;60269;52.502;16.732;2023-04-24T13:33:36;17.22;59.38
72320;SHT30;60269;52.502;16.732;2023-04-24T13:37:08;17.14;59.87
72320;SHT30;60269;52.502;16.732;2023-04-24T13:40:40;17.19;57.99
72320;SHT30;60269;52.502;16.732;2023-04-24T13:44:12;17.22;55.71
72320;SHT30;60269;52.502;16.732;2023-04-24T13:47:44;17.10;55.05
72320;SHT30;60269;52.502;16.732;2023-04-24T13:51:19;17.02;55.78
72320;SHT30;60269;52.502;16.732;2023-04-24T13:54:51;16.88;56.81
72320;SHT30;60269;52.502;16.732;2023-04-24T13:58:23;16.73;57.81
72320;SHT30;60269;52.502;16.732;2023-04-24T14:01:55;16.74;58.49
72320;SHT30;60269;52.502;16.732;2023-04-24T14:05:27;16.67;58.57
72320;SHT30;60269;52.502;16.732;2023-04-24T14:08:58;16.74;59.21
72320;SHT30;60269;52.502;16.732;2023-04-24T14:12:33;16.60;60.01
72320;SHT30;60269;52.502;16.732;2023-04-24T14:16:06;16.59;61.12
72320;SHT30;60269;52.502;16.732;2023-04-24T14:19:38;16.52;61.72
72320;SHT30;60269;52.502;16.732;2023-04-24T14:23:10;16.40;60.94
72320;SHT30;60269;52.502;16.732;2023-04-24T14:26:46;16.33;61.48
72320;SHT30;60269;52.502;16.732;2023-04-24T14:30:19;16.32;61.62
72320;SHT30;60269;52.502;16.732;2023-04-24T14:33:51;16.30;61.75
72320;SHT30;60269;52.502;16.732;2023-04-24T14:37:23;16.43;61.57
72320;SHT30;60269;52.502;16.732;2023-04-24T14:40:54;16.13;61.39
72320;SHT30;60269;52.502;16.732;2023-04-24T14:44:38;16.15;62.14
72320;SHT30;60269;52.502;16.732;2023-04-24T14:48:10;16.10;62.09
72320;SHT30;60269;52.502;16.732;2023-04-24T14:51:43;15.85;63.68
72320;SHT30;60269;52.502;16.732;2023-04-24T14:55:15;15.86;65.89
72320;SHT30;60269;52.502;16.732;2023-04-24T14:58:49;15.82;66.31
72320;SHT30;60269;52.502;16.732;2023-04-24T15:02:21;15.78;66.60
72320;SHT30;60269;52.502;16.732;2023-04-24T15:05:53;15.77;68.35
72320;SHT30;60269;52.502;16.732;2023-04-24T15:09:25;15.79;64.66
72320;SHT30;60269;52.502;16.732;2023-04-24T15:12:58;15.85;66.94
72320;SHT30;60269;52.502;16.732;2023-04-24T15:16:31;16.09;67.69
72320;SHT30;60269;52.502;16.732;2023-04-24T15:20:04;15.92;67.22
72320;SHT30;60269;52.502;16.732;2023-04-24T15:23:37;15.94;64.84
72320;SHT30;60269;52.502;16.732;2023-04-24T15:27:10;15.88;64.81
72320;SHT30;60269;52.502;16.732;2023-04-24T15:30:43;15.69;64.25
72320;SHT30;60269;52.502;16.732;2023-04-24T15:34:15;15.40;62.20
72320;SHT30;60269;52.502;16.732;2023-04-24T15:37:47;15.33;63.25
72320;SHT30;60269;52.502;16.732;2023-04-24T15:41:19;15.20;64.21
72320;SHT30;60269;52.502;16.732;2023-04-24T15:44:56;15.14;66.47
72320;SHT30;60269;52.502;16.732;2023-04-24T15:48:28;14.93;69.58
72320;SHT30;60269;52.502;16.732;2023-04-24T15:52:01;14.83;69.90
72320;SHT30;60269;52.502;16.732;2023-04-24T15:55:33;14.83;69.40
72320;SHT30;60269;52.502;16.732;2023-04-24T15:59:05;14.93;70.50
72320;SHT30;60269;52.502;16.732;2023-04-24T16:02:38;14.99;71.22
72320;SHT30;60269;52.502;16.732;2023-04-24T16:06:11;14.93;72.27
72320;SHT30;60269;52.502;16.732;2023-04-24T16:09:53;14.83;73.04
72320;SHT30;60269;52.502;16.732;2023-04-24T16:13:27;14.72;74.14
72320;SHT30;60269;52.502;16.732;2023-04-24T16:17:00;14.65;74.63
72320;SHT30;60269;52.502;16.732;2023-04-24T16:20:33;14.52;72.63
72320;SHT30;60269;52.502;16.732;2023-04-24T16:24:05;14.44;73.03
72320;SHT30;60269;52.502;16.732;2023-04-24T16:27:40;14.38;72.09
72320;SHT30;60269;52.502;16.732;2023-04-24T16:31:21;14.18;71.43
72320;SHT30;60269;52.502;16.732;2023-04-24T16:34:54;14.10;70.72
72320;SHT30;60269;52.502;16.732;2023-04-24T16:38:25;13.99;71.17
72320;SHT30;60269;52.502;16.732;2023-04-24T16:42:01;13.84;71.57
72320;SHT30;60269;52.502;16.732;2023-04-24T16:45:34;13.76;70.79
72320;SHT30;60269;52.502;16.732;2023-04-24T16:49:06;13.66;71.67
72320;SHT30;60269;52.502;16.732;2023-04-24T16:52:38;13.61;71.92
72320;SHT30;60269;52.502;16.732;2023-04-24T16:56:10;13.29;75.46
72320;SHT30;60269;52.502;16.732;2023-04-24T16:59:44;12.80;78.68
72320;SHT30;60269;52.502;16.732;2023-04-24T17:03:16;12.43;79.66
72320;SHT30;60269;52.502;16.732;2023-04-24T17:06:48;12.28;81.16
72320;SHT30;60269;52.502;16.732;2023-04-24T17:10:21;12.17;81.59
72320;SHT30;60269;52.502;16.732;2023-04-24T17:13:53;12.21;81.18
72320;SHT30;60269;52.502;16.732;2023-04-24T17:17:25;12.09;82.18
72320;SHT30;60269;52.502;16.732;2023-04-24T17:20:57;12.04;83.55
72320;SHT30;60269;52.502;16.732;2023-04-24T17:24:29;11.92;84.43
72320;SHT30;60269;52.502;16.732;2023-04-24T17:28:28;11.82;83.89
72320;SHT30;60269;52.502;16.732;2023-04-24T17:32:00;11.80;85.30
72320;SHT30;60269;52.502;16.732;2023-04-24T17:35:33;11.81;85.16
72320;SHT30;60269;52.502;16.732;2023-04-24T17:39:17;11.82;83.87
72320;SHT30;60269;52.502;16.732;2023-04-24T17:42:49;11.88;82.80
72320;SHT30;60269;52.502;16.732;2023-04-24T17:46:21;11.95;81.74
72320;SHT30;60269;52.502;16.732;2023-04-24T17:49:53;11.94;82.79
72320;SHT30;60269;52.502;16.732;2023-04-24T17:53:25;11.88;83.32
72320;SHT30;60269;52.502;16.732;2023-04-24T17:56:57;11.82;83.48
72320;SHT30;60269;52.502;16.732;2023-04-24T18:00:30;11.81;84.16
72320;SHT30;60269;52.502;16.732;2023-04-24T18:04:02;11.75;84.61
72320;SHT30;60269;52.502;16.732;2023-04-24T18:07:34;11.67;85.87
72320;SHT30;60269;52.502;16.732;2023-04-24T18:11:07;11.51;88.04
72320;SHT30;60269;52.502;16.732;2023-04-24T18:14:39;11.36;89.46
72320;SHT30;60269;52.502;16.732;2023-04-24T18:18:11;11.34;89.74
72320;SHT30;60269;52.502;16.732;2023-04-24T18:21:43;11.29;90.60
72320;SHT30;60269;52.502;16.732;2023-04-24T18:25:15;11.23;91.39
72320;SHT30;60269;52.502;16.732;2023-04-24T18:28:48;11.18;92.02
72320;SHT30;60269;52.502;16.732;2023-04-24T18:32:20;11.18;92.19
72320;SHT30;60269;52.502;16.732;2023-04-24T18:35:52;11.18;92.09
72320;SHT30;60269;52.502;16.732;2023-04-24T18:39:25;11.19;92.69
72320;SHT30;60269;52.502;16.732;2023-04-24T18:42:57;11.16;93.06
72320;SHT30;60269;52.502;16.732;2023-04-24T18:46:29;11.18;93.14
72320;SHT30;60269;52.502;16.732;2023-04-24T18:50:06;11.16;93.59
72320;SHT30;60269;52.502;16.732;2023-04-24T18:53:37;11.22;93.43
72320;SHT30;60269;52.502;16.732;2023-04-24T18:57:10;11.24;93.02
72320;SHT30;60269;52.502;16.732;2023-04-24T19:00:41;11.32;92.64
72320;SHT30;60269;52.502;16.732;2023-04-24T19:04:14;11.34;92.56
72320;SHT30;60269;52.502;16.732;2023-04-24T19:07:46;11.29;93.09
72320;SHT30;60269;52.502;16.732;2023-04-24T19:11:18;11.23;93.40
72320;SHT30;60269;52.502;16.732;2023-04-24T19:14:50;11.19;93.42
72320;SHT30;60269;52.502;16.732;2023-04-24T19:18:23;11.13;93.26
72320;SHT30;60269;52.502;16.732;2023-04-24T19:21:57;11.05;93.94
72320;SHT30;60269;52.502;16.732;2023-04-24T19:25:28;11.01;94.11
72320;SHT30;60269;52.502;16.732;2023-04-24T19:29:01;10.99;94.15
72320;SHT30;60269;52.502;16.732;2023-04-24T19:32:34;10.98;94.34
72320;SHT30;60269;52.502;16.732;2023-04-24T19:36:06;10.96;94.44
72320;SHT30;60269;52.502;16.732;2023-04-24T19:39:38;10.92;94.37
72320;SHT30;60269;52.502;16.732;2023-04-24T19:43:11;10.88;94.54
72320;SHT30;60269;52.502;16.732;2023-04-24T19:46:43;10.75;94.99
72320;SHT30;60269;52.502;16.732;2023-04-24T19:50:15;10.71;95.09
72320;SHT30;60269;52.502;16.732;2023-04-24T19:53:48;10.74;94.99
72320;SHT30;60269;52.502;16.732;2023-04-24T19:57:20;10.68;95.11
72320;SHT30;60269;52.502;16.732;2023-04-24T20:00:52;10.68;95.15
72320;SHT30;60269;52.502;16.732;2023-04-24T20:04:23;10.71;95.28
72320;SHT30;60269;52.502;16.732;2023-04-24T20:07:56;10.74;94.99
72320;SHT30;60269;52.502;16.732;2023-04-24T20:11:27;10.68;94.99
72320;SHT30;60269;52.502;16.732;2023-04-24T20:15:02;10.71;94.79
72320;SHT30;60269;52.502;16.732;2023-04-24T20:18:34;10.69;94.93
72320;SHT30;60269;52.502;16.732;2023-04-24T20:22:08;10.72;94.85
72320;SHT30;60269;52.502;16.732;2023-04-24T20:25:43;10.68;94.96
72320;SHT30;60269;52.502;16.732;2023-04-24T20:29:15;10.67;94.77
72320;SHT30;60269;52.502;16.732;2023-04-24T20:32:47;10.51;95.16
72320;SHT30;60269;52.502;16.732;2023-04-24T20:36:19;10.41;95.63
72320;SHT30;60269;52.502;16.732;2023-04-24T20:39:51;10.25;95.81
72320;SHT30;60269;52.502;16.732;2023-04-24T20:43:26;10.17;96.25
72320;SHT30;60269;52.502;16.732;2023-04-24T20:47:00;10.17;96.00
72320;SHT30;60269;52.502;16.732;2023-04-24T20:50:34;10.03;96.27
72320;SHT30;60269;52.502;16.732;2023-04-24T20:54:12;9.99;96.34
72320;SHT30;60269;52.502;16.732;2023-04-24T20:57:44;9.86;96.76
72320;SHT30;60269;52.502;16.732;2023-04-24T21:01:16;9.79;97.02
72320;SHT30;60269;52.502;16.732;2023-04-24T21:04:49;9.78;97.02
72320;SHT30;60269;52.502;16.732;2023-04-24T21:08:21;9.65;96.98
72320;SHT30;60269;52.502;16.732;2023-04-24T21:11:55;9.59;97.18
72320;SHT30;60269;52.502;16.732;2023-04-24T21:15:28;9.47;97.06
72320;SHT30;60269;52.502;16.732;2023-04-24T21:19:01;9.55;96.94
72320;SHT30;60269;52.502;16.732;2023-04-24T21:22:33;9.52;96.51
72320;SHT30;60269;52.502;16.732;2023-04-24T21:26:06;9.47;95.84
72320;SHT30;60269;52.502;16.732;2023-04-24T21:29:39;9.52;94.81
72320;SHT30;60269;52.502;16.732;2023-04-24T21:33:11;9.45;94.11
72320;SHT30;60269;52.502;16.732;2023-04-24T21:36:43;9.42;93.56
72320;SHT30;60269;52.502;16.732;2023-04-24T21:40:16;9.42;93.41
72320;SHT30;60269;52.502;16.732;2023-04-24T21:43:49;9.27;93.38
72320;SHT30;60269;52.502;16.732;2023-04-24T21:47:21;9.37;92.08
72320;SHT30;60269;52.502;16.732;2023-04-24T21:50:53;9.41;90.96
72320;SHT30;60269;52.502;16.732;2023-04-24T21:54:25;9.49;89.54
72320;SHT30;60269;52.502;16.732;2023-04-24T21:57:57;9.47;89.85
72320;SHT30;60269;52.502;16.732;2023-04-24T22:01:29;9.34;90.43
72320;SHT30;60269;52.502;16.732;2023-04-24T22:05:03;9.31;90.43
72320;SHT30;60269;52.502;16.732;2023-04-24T22:08:36;9.32;89.31
72320;SHT30;60269;52.502;16.732;2023-04-24T22:12:08;9.26;89.25
72320;SHT30;60269;52.502;16.732;2023-04-24T22:15:40;9.20;88.81